createdAt,value
2019-02-19T00:01:02.498Z,70.04
2019-02-19T00:04:58.835Z,70.33
2019-02-19T00:06:58.829Z,70.17
2019-02-19T00:10:58.850Z,70.24
2019-02-19T00:12:58.823Z,70.06
2019-02-19T00:16:58.845Z,70.23
2019-02-19T00:18:58.875Z,70.35
2019-02-19T00:22:58.868Z,70.24
2019-02-19T00:24:58.877Z,69.99
2019-02-19T00:28:58.873Z,70.18
2019-02-19T00:30:58.872Z,70.03
2019-02-19T00:34:58.883Z,70.36
2019-02-19T00:36:58.895Z,70.01
2019-02-19T00:40:58.912Z,70.02
2019-02-19T00:42:58.913Z,70.18
2019-02-19T00:46:58.916Z,70.25
2019-02-19T00:48:58.922Z,70.40
2019-02-19T00:52:58.945Z,70.08
2019-02-19T00:54:58.932Z,70.00
2019-02-19T00:58:58.952Z,70.03
2019-02-19T01:00:58.948Z,70.25
2019-02-19T01:04:58.943Z,70.13
2019-02-19T01:06:59.014Z,70.14
2019-02-19T01:10:58.953Z,69.85
2019-02-19T01:12:58.966Z,70.24
2019-02-19T01:16:58.974Z,69.85
2019-02-19T01:19:03.647Z,70.44
2019-02-19T01:22:58.955Z,69.91
2019-02-19T01:26:58.969Z,70.35
2019-02-19T01:28:58.987Z,69.97
2019-02-19T01:32:58.982Z,70.15
2019-02-19T01:34:58.980Z,69.91
2019-02-19T01:38:58.979Z,69.82
2019-02-19T01:40:58.974Z,70.08
2019-02-19T01:44:58.976Z,69.60
2019-02-19T01:46:58.998Z,69.84
2019-02-19T01:50:58.993Z,69.87
2019-02-19T01:52:58.973Z,69.95
2019-02-19T01:56:59.015Z,69.96
2019-02-19T01:58:59.003Z,70.32
2019-02-19T02:02:59.021Z,69.88
2019-02-19T02:04:59.010Z,69.93
2019-02-19T02:08:59.025Z,69.90
2019-02-19T02:10:58.999Z,70.01
2019-02-19T02:14:59.010Z,69.86
2019-02-19T02:17:04.039Z,69.56
2019-02-19T02:20:59.024Z,69.93
2019-02-19T02:22:59.019Z,69.76
2019-02-19T02:26:59.023Z,69.51
2019-02-19T02:28:59.047Z,69.77
2019-02-19T02:32:59.056Z,69.89
2019-02-19T02:36:59.048Z,69.68
2019-02-19T02:38:59.054Z,69.94
2019-02-19T02:42:59.051Z,70.14
2019-02-19T02:44:59.056Z,69.80
2019-02-19T02:48:59.064Z,69.88
2019-02-19T02:50:59.040Z,69.87
2019-02-19T02:54:59.067Z,70.00
2019-02-19T02:56:59.092Z,69.66
2019-02-19T03:00:59.056Z,70.03
2019-02-19T03:03:03.651Z,69.83
2019-02-19T03:06:59.084Z,69.89
2019-02-19T03:08:59.058Z,69.90
2019-02-19T03:12:59.096Z,70.10
2019-02-19T03:14:59.088Z,69.62
2019-02-19T03:18:59.079Z,69.81
2019-02-19T03:20:59.095Z,70.04
2019-02-19T03:24:59.111Z,69.84
2019-02-19T03:26:59.109Z,69.78
2019-02-19T03:30:59.125Z,70.09
2019-02-19T03:32:59.129Z,69.80
2019-02-19T03:37:04.153Z,69.98
2019-02-19T03:38:59.130Z,69.69
2019-02-19T03:42:59.149Z,69.80
2019-02-19T03:44:59.158Z,69.73
2019-02-19T03:48:59.182Z,69.69
2019-02-19T03:50:59.172Z,69.72
2019-02-19T03:54:59.205Z,69.68
2019-02-19T03:56:59.187Z,69.96
2019-02-19T04:00:59.202Z,70.07
2019-02-19T04:02:59.224Z,69.78
2019-02-19T04:06:59.218Z,69.87
2019-02-19T04:08:59.206Z,69.96
2019-02-19T04:12:59.239Z,69.80
2019-02-19T04:15:06.017Z,69.87
2019-02-19T04:18:59.247Z,69.75
2019-02-19T04:20:59.242Z,69.84
2019-02-19T04:24:59.267Z,69.71
2019-02-19T04:26:59.266Z,69.77
2019-02-19T04:30:59.278Z,69.88
2019-02-19T04:32:59.281Z,69.77
2019-02-19T04:36:59.268Z,69.81
2019-02-19T04:38:59.284Z,69.91
2019-02-19T04:42:59.305Z,69.65
2019-02-19T04:44:59.294Z,69.73
2019-02-19T04:49:04.280Z,69.94
2019-02-19T04:50:59.341Z,69.55
2019-02-19T04:54:59.340Z,69.75
2019-02-19T04:56:59.347Z,69.63
2019-02-19T05:00:59.347Z,69.70
2019-02-19T05:02:59.353Z,69.78
2019-02-19T05:07:04.003Z,69.76
2019-02-19T05:08:59.343Z,69.76
2019-02-19T05:12:59.372Z,69.77
2019-02-19T05:14:59.372Z,69.77
2019-02-19T05:18:59.389Z,69.67
2019-02-19T05:20:59.413Z,69.77
2019-02-19T05:24:59.400Z,69.75
2019-02-19T05:26:59.426Z,69.81
2019-02-19T05:30:59.431Z,69.70
2019-02-19T05:32:59.378Z,69.71
2019-02-19T05:36:59.447Z,69.73
2019-02-19T05:38:59.421Z,69.75
2019-02-19T05:43:01.406Z,69.82
2019-02-19T05:44:59.458Z,69.75
2019-02-19T05:48:59.436Z,69.51
2019-02-19T05:51:04.459Z,69.82
2019-02-19T05:54:59.489Z,69.73
2019-02-19T05:56:59.479Z,69.82
2019-02-19T06:00:59.495Z,69.75
2019-02-19T06:02:59.508Z,69.83
2019-02-19T06:06:59.519Z,69.70
2019-02-19T06:08:59.510Z,69.71
2019-02-19T06:12:59.524Z,69.74
2019-02-19T06:14:59.546Z,69.84
2019-02-19T06:18:59.539Z,69.79
2019-02-19T06:20:59.528Z,69.54
2019-02-19T06:24:59.604Z,69.76
2019-02-19T06:26:59.555Z,69.43
2019-02-19T06:30:59.570Z,69.92
2019-02-19T06:32:59.547Z,69.41
2019-02-19T06:36:59.770Z,69.55
2019-02-19T06:38:59.614Z,69.27
2019-02-19T06:42:59.610Z,69.61
2019-02-19T06:44:59.739Z,69.56
2019-02-19T06:49:04.646Z,69.62
2019-02-19T06:50:59.647Z,69.59
2019-02-19T06:54:59.677Z,69.47
2019-02-19T06:56:59.869Z,69.57
2019-02-19T07:00:59.887Z,69.76
2019-02-19T07:04:59.655Z,69.29
2019-02-19T07:06:59.671Z,69.69
2019-02-19T07:11:08.843Z,69.42
2019-02-19T07:12:59.839Z,69.69
2019-02-19T07:16:59.672Z,69.62
2019-02-19T07:19:04.597Z,69.97
2019-02-19T07:22:59.802Z,69.46
2019-02-19T07:25:04.875Z,69.56
2019-02-19T07:28:59.830Z,69.53
2019-02-19T07:30:59.861Z,69.75
2019-02-19T07:34:59.792Z,69.51
2019-02-19T07:36:59.704Z,69.45
2019-02-19T07:41:05.660Z,69.36
2019-02-19T07:42:59.722Z,69.61
2019-02-19T07:47:02.647Z,69.33
2019-02-19T07:48:59.876Z,69.25
2019-02-19T07:52:59.947Z,69.40
2019-02-19T07:55:02.665Z,69.46
2019-02-19T07:59:02.684Z,69.87
2019-02-19T08:02:59.756Z,69.34
2019-02-19T08:05:05.948Z,69.90
2019-02-19T08:08:59.738Z,69.62
2019-02-19T08:10:59.785Z,69.57
2019-02-19T08:14:59.932Z,69.52
2019-02-19T08:16:59.808Z,70.01
2019-02-19T08:21:04.828Z,69.54
2019-02-19T08:22:59.929Z,69.23
2019-02-19T08:26:59.832Z,69.93
2019-02-19T08:29:11.311Z,69.39
2019-02-19T08:33:04.167Z,69.54
2019-02-19T08:35:04.307Z,69.48
2019-02-19T08:38:59.967Z,69.50
2019-02-19T08:41:08.758Z,69.22
2019-02-19T08:44:59.971Z,69.53
2019-02-19T08:46:59.837Z,69.46
2019-02-19T08:50:59.963Z,69.64
2019-02-19T08:52:59.828Z,69.93
2019-02-19T08:56:59.833Z,69.61
2019-02-19T08:59:01.859Z,69.42
2019-02-19T09:02:59.865Z,69.66
2019-02-19T09:05:04.880Z,69.59
2019-02-19T09:08:59.963Z,69.59
2019-02-19T09:10:59.939Z,69.93
2019-02-19T09:15:04.807Z,70.14
2019-02-19T09:17:00.894Z,70.02
2019-02-19T09:20:59.889Z,69.62
2019-02-19T09:22:59.940Z,70.21
2019-02-19T09:26:59.923Z,70.06
2019-02-19T09:28:59.948Z,69.64
2019-02-19T09:32:59.975Z,70.11
2019-02-19T09:35:05.062Z,70.15
2019-02-19T09:38:59.933Z,69.96
2019-02-19T09:41:08.855Z,70.29
2019-02-19T09:44:59.919Z,69.94
2019-02-19T09:46:59.945Z,70.34
2019-02-19T09:50:59.930Z,70.11
2019-02-19T09:53:00.442Z,70.31
2019-02-19T09:56:59.948Z,70.02
2019-02-19T09:58:59.957Z,70.09
2019-02-19T10:03:00.079Z,70.13
2019-02-19T10:05:00.315Z,69.97
2019-02-19T10:09:00.119Z,70.32
2019-02-19T10:11:09.159Z,70.22
2019-02-19T10:14:59.984Z,70.36
2019-02-19T10:17:05.909Z,70.30
2019-02-19T10:21:05.193Z,70.43
2019-02-19T10:23:02.536Z,70.63
2019-02-19T10:26:59.995Z,70.41
2019-02-19T10:28:59.996Z,70.02
2019-02-19T10:33:00.004Z,70.53
2019-02-19T10:35:00.005Z,70.75
2019-02-19T10:39:00.137Z,70.53
2019-02-19T10:41:00.001Z,70.24
2019-02-19T10:45:00.048Z,70.20
2019-02-19T10:47:00.026Z,70.44
2019-02-19T10:51:00.054Z,70.61
2019-02-19T10:53:00.079Z,70.53
2019-02-19T10:57:02.605Z,70.66
2019-02-19T10:59:00.080Z,70.49
2019-02-19T11:03:00.041Z,70.58
2019-02-19T11:05:00.039Z,70.47
2019-02-19T11:09:00.062Z,70.66
2019-02-19T11:11:09.014Z,70.74
2019-02-19T11:15:00.151Z,70.74
2019-02-19T11:17:00.088Z,70.67
2019-02-19T11:21:05.090Z,70.71
2019-02-19T11:23:00.110Z,70.74
2019-02-19T11:27:05.017Z,70.73
2019-02-19T11:29:00.118Z,70.62
2019-02-19T11:33:00.115Z,70.78
2019-02-19T11:35:00.130Z,70.89
2019-02-19T11:39:00.129Z,70.89
2019-02-19T11:41:09.310Z,70.83
2019-02-19T11:45:00.270Z,70.86
2019-02-19T11:47:00.146Z,70.89
2019-02-19T11:51:05.299Z,70.96
2019-02-19T11:53:00.145Z,70.89
2019-02-19T11:57:01.156Z,71.13
2019-02-19T11:59:00.157Z,71.10
2019-02-19T12:03:00.150Z,71.01
2019-02-19T12:05:00.350Z,71.09
2019-02-19T12:09:00.155Z,71.08
2019-02-19T12:11:10.363Z,71.15
2019-02-19T12:15:00.271Z,71.18
2019-02-19T12:17:00.151Z,71.23
2019-02-19T12:21:00.185Z,71.07
2019-02-19T12:23:00.193Z,71.17
2019-02-19T12:27:00.187Z,71.33
2019-02-19T12:29:00.216Z,71.33
2019-02-19T12:33:04.755Z,71.25
2019-02-19T12:35:00.219Z,71.31
2019-02-19T12:39:00.189Z,71.38
2019-02-19T12:41:06.393Z,71.24
2019-02-19T12:45:00.267Z,71.42
2019-02-19T12:47:00.195Z,71.42
2019-02-19T12:51:00.198Z,71.39
2019-02-19T12:53:00.221Z,71.40
2019-02-19T12:57:00.207Z,71.43
2019-02-19T12:59:00.218Z,71.49
2019-02-19T13:03:00.216Z,71.56
2019-02-19T13:05:00.353Z,71.54
2019-02-19T13:09:00.250Z,71.73
2019-02-19T13:11:00.255Z,71.68
2019-02-19T13:15:00.305Z,71.70
2019-02-19T13:17:00.258Z,71.63
2019-02-19T13:21:00.268Z,71.62
2019-02-19T13:23:00.247Z,71.70
2019-02-19T13:27:00.263Z,71.91
2019-02-19T13:29:00.265Z,71.56
2019-02-19T13:33:00.273Z,71.78
2019-02-19T13:35:00.289Z,71.80
2019-02-19T13:39:00.286Z,71.82
2019-02-19T13:41:10.493Z,71.90
2019-02-19T13:45:00.330Z,71.69
2019-02-19T13:47:00.301Z,71.86
2019-02-19T13:53:00.336Z,71.87
2019-02-19T13:55:00.337Z,71.90
2019-02-19T13:59:00.332Z,71.94
2019-02-19T14:01:00.332Z,72.04
2019-02-19T14:05:00.331Z,71.88
2019-02-19T14:07:00.346Z,71.97
2019-02-19T14:11:00.356Z,72.18
2019-02-19T14:13:00.347Z,71.79
2019-02-19T14:19:00.366Z,72.11
2019-02-19T14:21:00.339Z,72.19
2019-02-19T14:25:00.372Z,72.03
2019-02-19T14:27:00.379Z,72.03
2019-02-19T14:31:00.380Z,71.88
2019-02-19T14:33:00.377Z,71.89
2019-02-19T14:37:00.389Z,72.04
2019-02-19T14:39:00.409Z,71.79
2019-02-19T14:43:00.385Z,71.94
2019-02-19T14:45:00.406Z,72.19
2019-02-19T14:49:00.424Z,71.97
2019-02-19T14:51:00.520Z,72.09
2019-02-19T14:55:00.431Z,72.01
2019-02-19T14:57:00.389Z,72.02
2019-02-19T15:01:00.424Z,72.17
2019-02-19T15:03:00.501Z,72.09
2019-02-19T15:07:00.430Z,72.14
2019-02-19T15:09:00.450Z,72.10
2019-02-19T15:13:00.416Z,72.02
2019-02-19T15:15:00.430Z,72.04
2019-02-19T15:19:00.447Z,72.09
2019-02-19T15:21:00.466Z,72.23
2019-02-19T15:25:00.453Z,72.14
2019-02-19T15:27:00.482Z,72.23
2019-02-19T15:31:00.457Z,71.98
2019-02-19T15:33:00.435Z,72.02
2019-02-19T15:37:00.488Z,72.00
2019-02-19T15:39:00.481Z,72.03
2019-02-19T15:43:00.516Z,71.99
2019-02-19T15:45:00.496Z,72.19
2019-02-19T15:49:00.531Z,72.13
2019-02-19T15:51:00.530Z,71.92
2019-02-19T15:55:00.513Z,72.18
2019-02-19T15:57:00.535Z,72.27
2019-02-19T16:01:00.524Z,72.12
2019-02-19T16:03:00.538Z,72.06
2019-02-19T16:07:00.544Z,72.21
2019-02-19T16:09:00.533Z,72.27
2019-02-19T16:13:00.551Z,72.03
2019-02-19T16:15:00.569Z,72.25
2019-02-19T16:19:00.574Z,72.14
2019-02-19T16:21:00.560Z,72.09
2019-02-19T16:25:00.623Z,72.06
2019-02-19T16:27:01.844Z,72.02
2019-02-19T16:31:00.614Z,72.41
2019-02-19T16:33:05.841Z,72.21
2019-02-19T16:37:00.607Z,72.23
2019-02-19T16:39:00.601Z,72.32
2019-02-19T16:43:00.620Z,72.28
2019-02-19T16:45:05.771Z,72.17
2019-02-19T16:49:00.624Z,72.13
2019-02-19T16:51:00.642Z,72.06
2019-02-19T16:55:02.941Z,72.06
2019-02-19T16:57:00.745Z,72.04
2019-02-19T17:01:00.626Z,72.06
2019-02-19T17:03:00.657Z,72.15
2019-02-19T17:07:00.637Z,72.29
2019-02-19T17:09:00.666Z,72.24
2019-02-19T17:13:00.652Z,72.12
2019-02-19T17:15:00.647Z,71.94
2019-02-19T17:19:00.630Z,71.83
2019-02-19T17:21:00.654Z,71.92
2019-02-19T17:25:00.669Z,71.87
2019-02-19T17:27:00.673Z,71.89
2019-02-19T17:31:00.677Z,71.91
2019-02-19T17:35:00.739Z,71.82
2019-02-19T17:37:00.674Z,71.76
2019-02-19T17:41:00.667Z,71.76
2019-02-19T17:43:01.461Z,71.74
2019-02-19T17:47:05.870Z,71.79
2019-02-19T17:49:00.706Z,71.73
2019-02-19T17:53:01.623Z,71.72
2019-02-19T17:55:00.833Z,71.74
2019-02-19T17:59:00.737Z,71.82
2019-02-19T18:01:00.878Z,71.60
2019-02-19T18:05:01.601Z,71.97
2019-02-19T18:07:00.726Z,71.72
2019-02-19T18:11:01.737Z,71.47
2019-02-19T18:13:00.742Z,71.77
2019-02-19T18:17:01.771Z,71.17
2019-02-19T18:19:02.008Z,71.59
2019-02-19T18:23:00.905Z,71.54
2019-02-19T18:25:00.783Z,71.59
2019-02-19T18:29:01.976Z,71.71
2019-02-19T18:31:00.875Z,71.51
2019-02-19T18:35:01.832Z,71.64
2019-02-19T18:37:01.864Z,71.69
2019-02-19T18:41:01.876Z,71.78
2019-02-19T18:43:01.913Z,71.34
2019-02-19T18:47:00.813Z,71.58
2019-02-19T18:49:00.993Z,71.54
2019-02-19T18:53:00.782Z,71.76
2019-02-19T18:55:00.834Z,71.49
2019-02-19T18:59:06.022Z,71.23
2019-02-19T19:01:00.939Z,71.45
2019-02-19T19:05:01.861Z,71.68
2019-02-19T19:07:00.837Z,71.28
2019-02-19T19:11:09.765Z,71.66
2019-02-19T19:13:05.999Z,71.28
2019-02-19T19:17:00.833Z,71.37
2019-02-19T19:19:00.850Z,71.64
2019-02-19T19:23:01.993Z,71.41
2019-02-19T19:25:00.868Z,71.38
2019-02-19T19:29:00.823Z,71.50
2019-02-19T19:31:00.828Z,71.50
2019-02-19T19:35:00.838Z,71.41
2019-02-19T19:37:00.853Z,71.04
2019-02-19T19:41:07.056Z,71.16
2019-02-19T19:43:06.515Z,71.66
2019-02-19T19:47:00.931Z,71.27
2019-02-19T19:49:06.924Z,71.38
2019-02-19T19:53:00.978Z,71.30
2019-02-19T19:55:01.056Z,71.27
2019-02-19T19:59:00.989Z,70.97
2019-02-19T20:01:01.129Z,71.28
2019-02-19T20:05:06.063Z,71.27
2019-02-19T20:07:00.855Z,71.44
2019-02-19T20:11:00.938Z,71.18
2019-02-19T20:13:00.860Z,70.68
2019-02-19T20:17:00.920Z,71.38
2019-02-19T20:19:01.823Z,71.34
2019-02-19T20:25:00.933Z,71.41
2019-02-19T20:29:02.748Z,71.21
2019-02-19T20:31:01.070Z,71.41
2019-02-19T20:35:00.917Z,71.02
2019-02-19T20:37:06.214Z,70.82
2019-02-19T20:41:10.143Z,71.07
2019-02-19T20:43:00.934Z,70.96
2019-02-19T20:47:00.934Z,71.21
2019-02-19T20:53:00.941Z,70.97
2019-02-19T20:55:00.946Z,70.73
2019-02-19T20:59:01.156Z,71.29
2019-02-19T21:03:06.148Z,71.21
2019-02-19T21:05:02.013Z,71.20
2019-02-19T21:09:02.116Z,71.16
2019-02-19T21:11:06.143Z,71.36
2019-02-19T21:17:01.200Z,70.78
2019-02-19T21:27:00.992Z,71.02
2019-02-19T21:29:06.835Z,70.82
2019-02-19T21:33:00.986Z,70.96
2019-02-19T21:35:00.983Z,71.19
2019-02-19T21:39:02.398Z,71.16
2019-02-19T21:41:07.884Z,70.99
2019-02-19T21:45:00.999Z,71.18
2019-02-19T21:47:01.007Z,70.93
2019-02-19T21:53:01.016Z,70.61
2019-02-19T21:55:01.182Z,70.85
2019-02-19T21:59:01.007Z,70.97
2019-02-19T22:01:01.161Z,71.05
2019-02-19T22:05:06.583Z,70.82
2019-02-19T22:07:01.021Z,71.10
2019-02-19T22:11:10.220Z,70.72
2019-02-19T22:13:01.010Z,70.80
2019-02-19T22:17:01.036Z,70.91
2019-02-19T22:19:01.023Z,70.50
2019-02-19T22:23:01.020Z,70.51
2019-02-19T22:25:01.032Z,70.81
2019-02-19T22:29:01.047Z,70.78
2019-02-19T22:31:01.023Z,70.81
2019-02-19T22:35:01.046Z,70.57
2019-02-19T22:37:01.049Z,70.95
2019-02-19T22:45:07.258Z,70.67
2019-02-19T22:47:01.047Z,70.87
2019-02-19T22:51:06.242Z,70.69
2019-02-19T22:53:10.035Z,70.59
2019-02-19T22:57:01.069Z,71.20
2019-02-19T22:59:01.129Z,70.45
2019-02-19T23:03:01.059Z,70.62
2019-02-19T23:05:01.060Z,70.79
2019-02-19T23:09:01.071Z,70.87
2019-02-19T23:11:01.109Z,70.70
2019-02-19T23:15:02.112Z,70.83
2019-02-19T23:17:01.100Z,70.75
2019-02-19T23:21:01.114Z,70.99
2019-02-19T23:23:05.580Z,70.77
2019-02-19T23:27:01.100Z,70.77
2019-02-19T23:29:01.137Z,70.73
2019-02-19T23:33:01.146Z,70.44
2019-02-19T23:35:01.117Z,70.56
2019-02-19T23:39:01.168Z,70.75
2019-02-19T23:41:01.170Z,71.10
2019-02-19T23:45:01.197Z,70.90
2019-02-19T23:47:01.201Z,70.72
2019-02-19T23:51:01.253Z,70.91
2019-02-19T23:53:01.252Z,70.73
2019-02-19T23:57:01.241Z,70.73
2019-02-19T23:59:01.443Z,70.63
